sensor_id;sensor_type;location;lat;lon;timestamp;P1;durP1;ratioP1;P2;durP2;ratioP2
9763;SDS011;4921;43.214;27.936;2022-10-26T00:01:03;12.47;;;4.60;;
9763;SDS011;4921;43.214;27.936;2022-10-26T00:03:30;11.80;;;4.80;;
9763;SDS011;4921;43.214;27.936;2022-10-26T00:06:06;7.93;;;4.60;;
9763;SDS011;4921;43.214;27.936;2022-10-26T00:08:34;8.17;;;4.17;;
9763;SDS011;4921;43.214;27.936;2022-10-26T00:11:02;7.37;;;4.27;;
9763;SDS011;4921;43.214;27.936;2022-10-26T00:13:29;13.40;;;4.00;;
9763;SDS011;4921;43.214;27.936;2022-10-26T00:15:57;8.33;;;4.17;;
9763;SDS011;4921;43.214;27.936;2022-10-26T00:18:24;8.70;;;4.17;;
9763;SDS011;4921;43.214;27.936;2022-10-26T00:20:52;9.93;;;4.40;;
9763;SDS011;4921;43.214;27.936;2022-10-26T00:23:19;7.03;;;4.50;;
9763;SDS011;4921;43.214;27.936;2022-10-26T00:25:52;8.33;;;3.73;;
9763;SDS011;4921;43.214;27.936;2022-10-26T00:28:20;8.17;;;4.23;;
9763;SDS011;4921;43.214;27.936;2022-10-26T00:30:47;11.63;;;4.63;;
9763;SDS011;4921;43.214;27.936;2022-10-26T00:33:16;8.60;;;4.47;;
9763;SDS011;4921;43.214;27.936;2022-10-26T00:35:46;11.17;;;4.40;;
9763;SDS011;4921;43.214;27.936;2022-10-26T00:38:13;12.17;;;5.30;;
9763;SDS011;4921;43.214;27.936;2022-10-26T00:40:40;11.87;;;3.90;;
9763;SDS011;4921;43.214;27.936;2022-10-26T00:43:10;11.63;;;4.60;;
9763;SDS011;4921;43.214;27.936;2022-10-26T00:45:40;7.80;;;4.50;;
9763;SDS011;4921;43.214;27.936;2022-10-26T00:48:10;7.80;;;4.57;;
9763;SDS011;4921;43.214;27.936;2022-10-26T00:50:45;13.93;;;4.50;;
9763;SDS011;4921;43.214;27.936;2022-10-26T00:53:13;6.80;;;3.93;;
9763;SDS011;4921;43.214;27.936;2022-10-26T00:55:42;10.77;;;4.20;;
9763;SDS011;4921;43.214;27.936;2022-10-26T00:58:12;11.70;;;4.70;;
9763;SDS011;4921;43.214;27.936;2022-10-26T01:00:39;6.70;;;4.47;;
9763;SDS011;4921;43.214;27.936;2022-10-26T01:03:08;10.80;;;4.73;;
9763;SDS011;4921;43.214;27.936;2022-10-26T01:05:37;9.87;;;4.23;;
9763;SDS011;4921;43.214;27.936;2022-10-26T01:08:09;9.87;;;5.03;;
9763;SDS011;4921;43.214;27.936;2022-10-26T01:10:37;8.77;;;4.23;;
9763;SDS011;4921;43.214;27.936;2022-10-26T01:13:05;9.27;;;4.67;;
9763;SDS011;4921;43.214;27.936;2022-10-26T01:15:35;12.83;;;4.53;;
9763;SDS011;4921;43.214;27.936;2022-10-26T01:18:09;8.17;;;4.83;;
9763;SDS011;4921;43.214;27.936;2022-10-26T01:20:46;7.17;;;4.47;;
9763;SDS011;4921;43.214;27.936;2022-10-26T01:23:35;9.50;;;4.67;;
9763;SDS011;4921;43.214;27.936;2022-10-26T01:26:24;10.67;;;5.00;;
9763;SDS011;4921;43.214;27.936;2022-10-26T01:29:20;10.63;;;5.03;;
9763;SDS011;4921;43.214;27.936;2022-10-26T01:32:07;7.67;;;4.57;;
9763;SDS011;4921;43.214;27.936;2022-10-26T01:34:39;11.43;;;5.20;;
9763;SDS011;4921;43.214;27.936;2022-10-26T01:37:11;8.33;;;4.70;;
9763;SDS011;4921;43.214;27.936;2022-10-26T01:39:41;11.70;;;6.03;;
9763;SDS011;4921;43.214;27.936;2022-10-26T01:42:12;10.67;;;5.70;;
9763;SDS011;4921;43.214;27.936;2022-10-26T01:44:44;10.13;;;5.80;;
9763;SDS011;4921;43.214;27.936;2022-10-26T01:47:16;9.30;;;5.13;;
9763;SDS011;4921;43.214;27.936;2022-10-26T01:49:46;8.93;;;5.10;;
9763;SDS011;4921;43.214;27.936;2022-10-26T01:52:18;15.00;;;6.20;;
9763;SDS011;4921;43.214;27.936;2022-10-26T01:54:45;9.07;;;5.17;;
9763;SDS011;4921;43.214;27.936;2022-10-26T01:57:13;12.57;;;6.60;;
9763;SDS011;4921;43.214;27.936;2022-10-26T01:59:47;12.07;;;6.00;;
9763;SDS011;4921;43.214;27.936;2022-10-26T02:02:43;7.10;;;5.57;;
9763;SDS011;4921;43.214;27.936;2022-10-26T02:05:34;14.63;;;7.17;;
9763;SDS011;4921;43.214;27.936;2022-10-26T02:08:13;12.70;;;6.83;;
9763;SDS011;4921;43.214;27.936;2022-10-26T02:10:50;11.20;;;7.23;;
9763;SDS011;4921;43.214;27.936;2022-10-26T02:13:28;9.43;;;6.77;;
9763;SDS011;4921;43.214;27.936;2022-10-26T02:15:59;14.53;;;6.67;;
9763;SDS011;4921;43.214;27.936;2022-10-26T02:18:41;14.53;;;7.53;;
9763;SDS011;4921;43.214;27.936;2022-10-26T02:21:13;12.63;;;6.80;;
9763;SDS011;4921;43.214;27.936;2022-10-26T02:23:44;12.63;;;6.77;;
9763;SDS011;4921;43.214;27.936;2022-10-26T02:26:14;11.97;;;6.60;;
9763;SDS011;4921;43.214;27.936;2022-10-26T02:28:43;13.67;;;7.47;;
9763;SDS011;4921;43.214;27.936;2022-10-26T02:31:16;13.30;;;6.97;;
9763;SDS011;4921;43.214;27.936;2022-10-26T02:33:47;14.00;;;7.07;;
9763;SDS011;4921;43.214;27.936;2022-10-26T02:36:16;12.97;;;6.80;;
9763;SDS011;4921;43.214;27.936;2022-10-26T02:38:47;9.97;;;6.30;;
9763;SDS011;4921;43.214;27.936;2022-10-26T02:41:16;15.77;;;6.90;;
9763;SDS011;4921;43.214;27.936;2022-10-26T02:43:46;9.00;;;6.70;;
9763;SDS011;4921;43.214;27.936;2022-10-26T02:46:19;15.23;;;6.73;;
9763;SDS011;4921;43.214;27.936;2022-10-26T02:48:50;12.83;;;6.90;;
9763;SDS011;4921;43.214;27.936;2022-10-26T02:51:17;10.50;;;6.80;;
9763;SDS011;4921;43.214;27.936;2022-10-26T02:53:51;12.73;;;6.47;;
9763;SDS011;4921;43.214;27.936;2022-10-26T02:56:24;16.67;;;6.97;;
9763;SDS011;4921;43.214;27.936;2022-10-26T02:58:56;12.00;;;6.73;;
9763;SDS011;4921;43.214;27.936;2022-10-26T03:01:26;12.53;;;6.70;;
9763;SDS011;4921;43.214;27.936;2022-10-26T03:03:57;8.77;;;6.43;;
9763;SDS011;4921;43.214;27.936;2022-10-26T03:06:25;9.50;;;6.60;;
9763;SDS011;4921;43.214;27.936;2022-10-26T03:08:52;14.77;;;6.87;;
9763;SDS011;4921;43.214;27.936;2022-10-26T03:11:19;12.27;;;7.30;;
9763;SDS011;4921;43.214;27.936;2022-10-26T03:13:46;12.23;;;6.93;;
9763;SDS011;4921;43.214;27.936;2022-10-26T03:16:12;10.77;;;7.30;;
9763;SDS011;4921;43.214;27.936;2022-10-26T03:18:39;12.27;;;7.13;;
9763;SDS011;4921;43.214;27.936;2022-10-26T03:21:08;15.47;;;6.40;;
9763;SDS011;4921;43.214;27.936;2022-10-26T03:23:35;14.47;;;7.47;;
9763;SDS011;4921;43.214;27.936;2022-10-26T03:26:02;13.53;;;6.97;;
9763;SDS011;4921;43.214;27.936;2022-10-26T03:28:28;12.37;;;7.50;;
9763;SDS011;4921;43.214;27.936;2022-10-26T03:30:55;10.13;;;6.70;;
9763;SDS011;4921;43.214;27.936;2022-10-26T03:33:22;8.77;;;6.43;;
9763;SDS011;4921;43.214;27.936;2022-10-26T03:35:53;14.57;;;7.23;;
9763;SDS011;4921;43.214;27.936;2022-10-26T03:38:22;19.63;;;8.03;;
9763;SDS011;4921;43.214;27.936;2022-10-26T03:40:49;12.00;;;6.87;;
9763;SDS011;4921;43.214;27.936;2022-10-26T03:43:17;11.20;;;7.10;;
9763;SDS011;4921;43.214;27.936;2022-10-26T03:45:44;14.90;;;7.73;;
9763;SDS011;4921;43.214;27.936;2022-10-26T03:48:11;12.60;;;7.77;;
9763;SDS011;4921;43.214;27.936;2022-10-26T03:50:38;12.83;;;8.03;;
9763;SDS011;4921;43.214;27.936;2022-10-26T03:53:05;9.70;;;7.20;;
9763;SDS011;4921;43.214;27.936;2022-10-26T03:55:34;15.90;;;7.97;;
9763;SDS011;4921;43.214;27.936;2022-10-26T03:58:01;11.80;;;7.93;;
9763;SDS011;4921;43.214;27.936;2022-10-26T04:00:28;10.67;;;7.50;;
9763;SDS011;4921;43.214;27.936;2022-10-26T04:02:56;9.17;;;6.50;;
9763;SDS011;4921;43.214;27.936;2022-10-26T04:05:25;10.97;;;7.40;;
9763;SDS011;4921;43.214;27.936;2022-10-26T04:07:53;14.33;;;8.03;;
9763;SDS011;4921;43.214;27.936;2022-10-26T04:10:20;21.47;;;9.13;;
9763;SDS011;4921;43.214;27.936;2022-10-26T04:12:49;14.83;;;8.13;;
9763;SDS011;4921;43.214;27.936;2022-10-26T04:15:16;11.27;;;7.70;;
9763;SDS011;4921;43.214;27.936;2022-10-26T04:17:43;8.50;;;7.10;;
9763;SDS011;4921;43.214;27.936;2022-10-26T04:20:10;12.10;;;7.10;;
9763;SDS011;4921;43.214;27.936;2022-10-26T04:22:38;14.73;;;6.83;;
9763;SDS011;4921;43.214;27.936;2022-10-26T04:25:05;12.87;;;7.53;;
9763;SDS011;4921;43.214;27.936;2022-10-26T04:27:34;10.43;;;7.60;;
9763;SDS011;4921;43.214;27.936;2022-10-26T04:30:03;15.27;;;7.33;;
9763;SDS011;4921;43.214;27.936;2022-10-26T04:32:34;10.57;;;6.80;;
9763;SDS011;4921;43.214;27.936;2022-10-26T04:35:01;12.03;;;7.93;;
9763;SDS011;4921;43.214;27.936;2022-10-26T04:37:27;7.93;;;5.53;;
9763;SDS011;4921;43.214;27.936;2022-10-26T04:39:54;15.03;;;8.20;;
9763;SDS011;4921;43.214;27.936;2022-10-26T04:42:21;9.77;;;7.67;;
9763;SDS011;4921;43.214;27.936;2022-10-26T04:44:48;12.97;;;7.97;;
9763;SDS011;4921;43.214;27.936;2022-10-26T04:47:16;13.97;;;9.23;;
9763;SDS011;4921;43.214;27.936;2022-10-26T04:49:43;13.30;;;8.13;;
9763;SDS011;4921;43.214;27.936;2022-10-26T04:52:10;14.87;;;7.57;;
9763;SDS011;4921;43.214;27.936;2022-10-26T04:54:37;14.07;;;8.00;;
9763;SDS011;4921;43.214;27.936;2022-10-26T04:57:04;14.83;;;7.97;;
9763;SDS011;4921;43.214;27.936;2022-10-26T04:59:31;15.80;;;7.97;;
9763;SDS011;4921;43.214;27.936;2022-10-26T05:01:58;13.13;;;8.67;;
9763;SDS011;4921;43.214;27.936;2022-10-26T05:04:26;13.23;;;7.37;;
9763;SDS011;4921;43.214;27.936;2022-10-26T05:06:53;12.00;;;8.10;;
9763;SDS011;4921;43.214;27.936;2022-10-26T05:09:20;13.33;;;7.80;;
9763;SDS011;4921;43.214;27.936;2022-10-26T05:11:47;11.80;;;7.97;;
9763;SDS011;4921;43.214;27.936;2022-10-26T05:14:14;11.83;;;6.77;;
9763;SDS011;4921;43.214;27.936;2022-10-26T05:16:41;9.87;;;7.97;;
9763;SDS011;4921;43.214;27.936;2022-10-26T05:19:08;11.07;;;6.70;;
9763;SDS011;4921;43.214;27.936;2022-10-26T05:21:37;12.90;;;7.83;;
9763;SDS011;4921;43.214;27.936;2022-10-26T05:24:04;13.57;;;7.60;;
9763;SDS011;4921;43.214;27.936;2022-10-26T05:26:31;15.53;;;7.30;;
9763;SDS011;4921;43.214;27.936;2022-10-26T05:28:58;13.07;;;6.60;;
9763;SDS011;4921;43.214;27.936;2022-10-26T05:31:25;11.80;;;7.30;;
9763;SDS011;4921;43.214;27.936;2022-10-26T05:33:52;16.53;;;6.93;;
9763;SDS011;4921;43.214;27.936;2022-10-26T05:36:19;13.17;;;7.17;;
9763;SDS011;4921;43.214;27.936;2022-10-26T05:38:47;16.60;;;8.30;;
9763;SDS011;4921;43.214;27.936;2022-10-26T05:41:14;11.63;;;7.17;;
9763;SDS011;4921;43.214;27.936;2022-10-26T05:43:41;13.37;;;7.60;;
9763;SDS011;4921;43.214;27.936;2022-10-26T05:46:08;10.33;;;6.97;;
9763;SDS011;4921;43.214;27.936;2022-10-26T05:48:35;12.07;;;7.20;;
9763;SDS011;4921;43.214;27.936;2022-10-26T05:51:02;21.73;;;7.53;;
9763;SDS011;4921;43.214;27.936;2022-10-26T05:53:29;14.13;;;7.30;;
9763;SDS011;4921;43.214;27.936;2022-10-26T05:55:57;13.43;;;7.10;;
9763;SDS011;4921;43.214;27.936;2022-10-26T05:58:25;11.83;;;6.60;;
9763;SDS011;4921;43.214;27.936;2022-10-26T06:00:56;10.43;;;6.87;;
9763;SDS011;4921;43.214;27.936;2022-10-26T06:03:37;13.33;;;7.10;;
9763;SDS011;4921;43.214;27.936;2022-10-26T06:06:17;11.97;;;7.27;;
9763;SDS011;4921;43.214;27.936;2022-10-26T06:08:45;14.57;;;6.87;;
9763;SDS011;4921;43.214;27.936;2022-10-26T06:11:14;11.07;;;6.63;;
9763;SDS011;4921;43.214;27.936;2022-10-26T06:13:41;17.80;;;7.50;;
9763;SDS011;4921;43.214;27.936;2022-10-26T06:16:18;11.63;;;8.10;;
9763;SDS011;4921;43.214;27.936;2022-10-26T06:18:57;15.20;;;9.07;;
9763;SDS011;4921;43.214;27.936;2022-10-26T06:21:45;12.73;;;8.20;;
9763;SDS011;4921;43.214;27.936;2022-10-26T06:24:21;11.87;;;7.70;;
9763;SDS011;4921;43.214;27.936;2022-10-26T06:26:56;11.67;;;7.30;;
9763;SDS011;4921;43.214;27.936;2022-10-26T06:29:32;14.83;;;7.40;;
9763;SDS011;4921;43.214;27.936;2022-10-26T06:32:07;13.17;;;7.13;;
9763;SDS011;4921;43.214;27.936;2022-10-26T06:34:35;11.10;;;7.00;;
9763;SDS011;4921;43.214;27.936;2022-10-26T06:37:08;10.60;;;7.37;;
9763;SDS011;4921;43.214;27.936;2022-10-26T06:39:37;17.73;;;7.43;;
9763;SDS011;4921;43.214;27.936;2022-10-26T06:42:10;12.40;;;6.60;;
9763;SDS011;4921;43.214;27.936;2022-10-26T06:44:38;9.57;;;6.10;;
9763;SDS011;4921;43.214;27.936;2022-10-26T06:47:06;10.13;;;6.70;;
9763;SDS011;4921;43.214;27.936;2022-10-26T06:49:40;9.93;;;6.60;;
9763;SDS011;4921;43.214;27.936;2022-10-26T06:52:19;9.10;;;6.37;;
9763;SDS011;4921;43.214;27.936;2022-10-26T06:54:53;12.73;;;6.77;;
9763;SDS011;4921;43.214;27.936;2022-10-26T06:57:23;18.43;;;7.13;;
9763;SDS011;4921;43.214;27.936;2022-10-26T06:59:55;17.53;;;6.70;;
9763;SDS011;4921;43.214;27.936;2022-10-26T07:02:24;13.03;;;6.80;;
9763;SDS011;4921;43.214;27.936;2022-10-26T07:04:51;12.03;;;6.70;;
9763;SDS011;4921;43.214;27.936;2022-10-26T07:07:19;14.73;;;6.80;;
9763;SDS011;4921;43.214;27.936;2022-10-26T07:09:47;13.50;;;7.17;;
9763;SDS011;4921;43.214;27.936;2022-10-26T07:12:15;8.93;;;6.57;;
9763;SDS011;4921;43.214;27.936;2022-10-26T07:14:43;13.97;;;6.77;;
9763;SDS011;4921;43.214;27.936;2022-10-26T07:17:10;14.33;;;7.70;;
9763;SDS011;4921;43.214;27.936;2022-10-26T07:19:37;13.93;;;7.43;;
9763;SDS011;4921;43.214;27.936;2022-10-26T07:22:04;11.60;;;7.33;;
9763;SDS011;4921;43.214;27.936;2022-10-26T07:24:31;14.33;;;7.80;;
9763;SDS011;4921;43.214;27.936;2022-10-26T07:26:58;18.17;;;8.47;;
9763;SDS011;4921;43.214;27.936;2022-10-26T07:29:25;18.07;;;7.80;;
9763;SDS011;4921;43.214;27.936;2022-10-26T07:31:54;19.43;;;8.97;;
9763;SDS011;4921;43.214;27.936;2022-10-26T07:34:21;16.10;;;8.00;;
9763;SDS011;4921;43.214;27.936;2022-10-26T07:36:48;21.07;;;9.17;;
9763;SDS011;4921;43.214;27.936;2022-10-26T07:39:16;24.97;;;8.97;;
9763;SDS011;4921;43.214;27.936;2022-10-26T07:41:43;20.30;;;8.27;;
9763;SDS011;4921;43.214;27.936;2022-10-26T07:44:11;12.80;;;8.37;;
9763;SDS011;4921;43.214;27.936;2022-10-26T07:46:38;11.20;;;8.67;;
9763;SDS011;4921;43.214;27.936;2022-10-26T07:49:06;15.67;;;8.47;;
9763;SDS011;4921;43.214;27.936;2022-10-26T07:51:33;18.80;;;9.37;;
9763;SDS011;4921;43.214;27.936;2022-10-26T07:54:00;13.73;;;9.97;;
9763;SDS011;4921;43.214;27.936;2022-10-26T07:56:27;16.63;;;10.03;;
9763;SDS011;4921;43.214;27.936;2022-10-26T07:58:54;18.60;;;10.10;;
9763;SDS011;4921;43.214;27.936;2022-10-26T08:01:22;13.87;;;10.10;;
9763;SDS011;4921;43.214;27.936;2022-10-26T08:03:50;18.27;;;10.60;;
9763;SDS011;4921;43.214;27.936;2022-10-26T08:06:19;18.33;;;9.87;;
9763;SDS011;4921;43.214;27.936;2022-10-26T08:08:47;18.37;;;8.43;;
9763;SDS011;4921;43.214;27.936;2022-10-26T08:11:14;14.30;;;8.53;;
9763;SDS011;4921;43.214;27.936;2022-10-26T08:13:41;13.80;;;7.93;;
9763;SDS011;4921;43.214;27.936;2022-10-26T08:16:08;11.20;;;6.73;;
9763;SDS011;4921;43.214;27.936;2022-10-26T08:18:35;10.20;;;6.67;;
9763;SDS011;4921;43.214;27.936;2022-10-26T08:21:03;11.00;;;6.57;;
9763;SDS011;4921;43.214;27.936;2022-10-26T08:23:32;12.53;;;7.07;;
9763;SDS011;4921;43.214;27.936;2022-10-26T08:25:59;11.17;;;7.03;;
9763;SDS011;4921;43.214;27.936;2022-10-26T08:28:27;16.37;;;6.77;;
9763;SDS011;4921;43.214;27.936;2022-10-26T08:30:54;11.00;;;6.77;;
9763;SDS011;4921;43.214;27.936;2022-10-26T08:33:21;7.10;;;5.80;;
9763;SDS011;4921;43.214;27.936;2022-10-26T08:35:49;8.77;;;6.03;;
9763;SDS011;4921;43.214;27.936;2022-10-26T08:38:21;8.67;;;7.10;;
9763;SDS011;4921;43.214;27.936;2022-10-26T08:40:50;12.23;;;6.67;;
9763;SDS011;4921;43.214;27.936;2022-10-26T08:43:18;12.33;;;7.03;;
9763;SDS011;4921;43.214;27.936;2022-10-26T08:45:50;14.63;;;8.60;;
9763;SDS011;4921;43.214;27.936;2022-10-26T08:48:22;17.53;;;8.60;;
9763;SDS011;4921;43.214;27.936;2022-10-26T08:50:53;13.40;;;8.40;;
9763;SDS011;4921;43.214;27.936;2022-10-26T08:53:26;14.23;;;8.60;;
9763;SDS011;4921;43.214;27.936;2022-10-26T08:56:02;19.77;;;7.50;;
9763;SDS011;4921;43.214;27.936;2022-10-26T08:58:35;18.90;;;8.33;;
9763;SDS011;4921;43.214;27.936;2022-10-26T09:01:06;23.27;;;12.13;;
9763;SDS011;4921;43.214;27.936;2022-10-26T09:03:34;13.03;;;9.03;;
9763;SDS011;4921;43.214;27.936;2022-10-26T09:06:04;15.53;;;7.50;;
9763;SDS011;4921;43.214;27.936;2022-10-26T09:08:46;11.87;;;7.70;;
9763;SDS011;4921;43.214;27.936;2022-10-26T09:11:27;9.37;;;5.80;;
9763;SDS011;4921;43.214;27.936;2022-10-26T09:14:09;10.63;;;6.17;;
9763;SDS011;4921;43.214;27.936;2022-10-26T09:16:46;10.07;;;6.33;;
9763;SDS011;4921;43.214;27.936;2022-10-26T09:19:26;12.47;;;6.50;;
9763;SDS011;4921;43.214;27.936;2022-10-26T09:22:02;13.00;;;6.53;;
9763;SDS011;4921;43.214;27.936;2022-10-26T09:24:37;14.97;;;5.57;;
9763;SDS011;4921;43.214;27.936;2022-10-26T09:27:11;8.90;;;4.50;;
9763;SDS011;4921;43.214;27.936;2022-10-26T09:29:45;10.20;;;6.10;;
9763;SDS011;4921;43.214;27.936;2022-10-26T09:32:16;8.40;;;4.80;;
9763;SDS011;4921;43.214;27.936;2022-10-26T09:34:46;9.27;;;5.50;;
9763;SDS011;4921;43.214;27.936;2022-10-26T09:37:17;9.07;;;5.73;;
9763;SDS011;4921;43.214;27.936;2022-10-26T09:39:50;7.00;;;3.97;;
9763;SDS011;4921;43.214;27.936;2022-10-26T09:42:26;7.97;;;4.93;;
9763;SDS011;4921;43.214;27.936;2022-10-26T09:45:02;8.17;;;4.70;;
9763;SDS011;4921;43.214;27.936;2022-10-26T09:47:37;8.93;;;5.73;;
9763;SDS011;4921;43.214;27.936;2022-10-26T09:50:14;5.67;;;4.03;;
9763;SDS011;4921;43.214;27.936;2022-10-26T09:52:46;7.10;;;4.77;;
9763;SDS011;4921;43.214;27.936;2022-10-26T09:55:12;7.40;;;4.87;;
9763;SDS011;4921;43.214;27.936;2022-10-26T09:57:42;8.00;;;4.37;;
9763;SDS011;4921;43.214;27.936;2022-10-26T10:00:12;5.23;;;3.40;;
9763;SDS011;4921;43.214;27.936;2022-10-26T10:02:41;5.97;;;3.17;;
9763;SDS011;4921;43.214;27.936;2022-10-26T10:05:25;7.40;;;3.87;;
9763;SDS011;4921;43.214;27.936;2022-10-26T10:10:36;3.57;;;2.93;;
9763;SDS011;4921;43.214;27.936;2022-10-26T10:13:14;3.63;;;3.30;;
9763;SDS011;4921;43.214;27.936;2022-10-26T10:15:50;4.23;;;3.23;;
9763;SDS011;4921;43.214;27.936;2022-10-26T10:18:19;4.73;;;3.10;;
9763;SDS011;4921;43.214;27.936;2022-10-26T10:20:51;2.40;;;2.20;;
9763;SDS011;4921;43.214;27.936;2022-10-26T10:23:25;4.70;;;2.50;;
9763;SDS011;4921;43.214;27.936;2022-10-26T10:25:57;4.87;;;2.70;;
9763;SDS011;4921;43.214;27.936;2022-10-26T10:28:27;6.20;;;3.93;;
9763;SDS011;4921;43.214;27.936;2022-10-26T10:30:54;9.23;;;6.07;;
9763;SDS011;4921;43.214;27.936;2022-10-26T10:33:31;7.10;;;5.07;;
9763;SDS011;4921;43.214;27.936;2022-10-26T10:36:03;6.00;;;5.33;;
9763;SDS011;4921;43.214;27.936;2022-10-26T10:38:40;5.67;;;4.63;;
9763;SDS011;4921;43.214;27.936;2022-10-26T10:41:16;7.07;;;5.10;;
9763;SDS011;4921;43.214;27.936;2022-10-26T10:43:49;7.47;;;4.67;;
9763;SDS011;4921;43.214;27.936;2022-10-26T10:46:19;5.27;;;4.60;;
9763;SDS011;4921;43.214;27.936;2022-10-26T10:48:51;8.10;;;4.93;;
9763;SDS011;4921;43.214;27.936;2022-10-26T10:51:21;7.40;;;4.60;;
9763;SDS011;4921;43.214;27.936;2022-10-26T10:53:50;8.27;;;4.53;;
9763;SDS011;4921;43.214;27.936;2022-10-26T10:56:22;6.10;;;5.40;;
9763;SDS011;4921;43.214;27.936;2022-10-26T10:59:04;8.00;;;4.70;;
9763;SDS011;4921;43.214;27.936;2022-10-26T11:01:54;5.77;;;4.43;;
9763;SDS011;4921;43.214;27.936;2022-10-26T11:04:43;7.73;;;4.73;;
9763;SDS011;4921;43.214;27.936;2022-10-26T11:07:20;6.80;;;4.63;;
9763;SDS011;4921;43.214;27.936;2022-10-26T11:09:49;6.90;;;4.83;;
9763;SDS011;4921;43.214;27.936;2022-10-26T11:12:20;6.03;;;4.80;;
9763;SDS011;4921;43.214;27.936;2022-10-26T11:14:54;5.30;;;4.73;;
9763;SDS011;4921;43.214;27.936;2022-10-26T11:17:25;10.80;;;4.73;;
9763;SDS011;4921;43.214;27.936;2022-10-26T11:19:57;5.07;;;4.10;;
9763;SDS011;4921;43.214;27.936;2022-10-26T11:22:28;6.57;;;4.47;;
9763;SDS011;4921;43.214;27.936;2022-10-26T11:25:01;6.17;;;4.20;;
9763;SDS011;4921;43.214;27.936;2022-10-26T11:27:33;4.47;;;4.07;;
9763;SDS011;4921;43.214;27.936;2022-10-26T11:30:08;4.53;;;4.10;;
9763;SDS011;4921;43.214;27.936;2022-10-26T11:32:40;4.37;;;3.97;;
9763;SDS011;4921;43.214;27.936;2022-10-26T11:35:12;6.77;;;4.30;;
9763;SDS011;4921;43.214;27.936;2022-10-26T11:37:44;5.30;;;4.20;;
9763;SDS011;4921;43.214;27.936;2022-10-26T11:40:17;6.13;;;4.20;;
9763;SDS011;4921;43.214;27.936;2022-10-26T11:42:53;6.23;;;3.67;;
9763;SDS011;4921;43.214;27.936;2022-10-26T11:45:33;6.07;;;4.97;;
9763;SDS011;4921;43.214;27.936;2022-10-26T11:48:05;5.90;;;4.17;;
9763;SDS011;4921;43.214;27.936;2022-10-26T11:50:42;4.67;;;4.00;;
9763;SDS011;4921;43.214;27.936;2022-10-26T11:53:11;5.53;;;4.10;;
9763;SDS011;4921;43.214;27.936;2022-10-26T11:55:41;8.97;;;4.60;;
9763;SDS011;4921;43.214;27.936;2022-10-26T11:58:12;4.97;;;3.83;;
9763;SDS011;4921;43.214;27.936;2022-10-26T12:00:42;6.50;;;4.93;;
9763;SDS011;4921;43.214;27.936;2022-10-26T12:03:14;8.33;;;4.03;;
9763;SDS011;4921;43.214;27.936;2022-10-26T12:05:47;6.07;;;4.17;;
9763;SDS011;4921;43.214;27.936;2022-10-26T12:08:17;4.53;;;4.07;;
9763;SDS011;4921;43.214;27.936;2022-10-26T12:10:51;4.43;;;4.00;;
9763;SDS011;4921;43.214;27.936;2022-10-26T12:13:26;6.50;;;4.50;;
9763;SDS011;4921;43.214;27.936;2022-10-26T12:16:05;6.03;;;5.40;;
9763;SDS011;4921;43.214;27.936;2022-10-26T12:18:46;4.57;;;4.17;;
9763;SDS011;4921;43.214;27.936;2022-10-26T12:21:17;4.80;;;4.03;;
9763;SDS011;4921;43.214;27.936;2022-10-26T12:23:54;5.80;;;3.87;;
9763;SDS011;4921;43.214;27.936;2022-10-26T12:29:12;5.03;;;4.13;;
9763;SDS011;4921;43.214;27.936;2022-10-26T12:31:55;5.23;;;3.93;;
9763;SDS011;4921;43.214;27.936;2022-10-26T12:34:23;4.83;;;3.73;;
9763;SDS011;4921;43.214;27.936;2022-10-26T12:37:21;8.13;;;4.30;;
9763;SDS011;4921;43.214;27.936;2022-10-26T12:39:49;6.03;;;3.70;;
9763;SDS011;4921;43.214;27.936;2022-10-26T12:42:27;8.43;;;3.67;;
9763;SDS011;4921;43.214;27.936;2022-10-26T12:45:06;4.70;;;3.57;;
9763;SDS011;4921;43.214;27.936;2022-10-26T12:48:02;5.47;;;3.53;;
9763;SDS011;4921;43.214;27.936;2022-10-26T12:50:30;5.43;;;3.40;;
9763;SDS011;4921;43.214;27.936;2022-10-26T12:52:57;3.40;;;3.10;;
9763;SDS011;4921;43.214;27.936;2022-10-26T12:58:40;3.60;;;3.30;;
9763;SDS011;4921;43.214;27.936;2022-10-26T13:01:27;3.37;;;3.10;;
9763;SDS011;4921;43.214;27.936;2022-10-26T13:07:21;3.83;;;3.10;;
9763;SDS011;4921;43.214;27.936;2022-10-26T13:09:54;5.73;;;3.20;;
9763;SDS011;4921;43.214;27.936;2022-10-26T13:12:25;5.70;;;4.03;;
9763;SDS011;4921;43.214;27.936;2022-10-26T13:14:56;9.53;;;3.83;;
9763;SDS011;4921;43.214;27.936;2022-10-26T13:17:26;6.47;;;3.60;;
9763;SDS011;4921;43.214;27.936;2022-10-26T13:19:56;5.27;;;3.50;;
9763;SDS011;4921;43.214;27.936;2022-10-26T13:22:26;4.73;;;4.13;;
9763;SDS011;4921;43.214;27.936;2022-10-26T13:24:56;4.50;;;4.13;;
9763;SDS011;4921;43.214;27.936;2022-10-26T13:27:42;5.50;;;4.40;;
9763;SDS011;4921;43.214;27.936;2022-10-26T13:33:10;7.50;;;4.37;;
9763;SDS011;4921;43.214;27.936;2022-10-26T13:35:47;5.20;;;4.20;;
9763;SDS011;4921;43.214;27.936;2022-10-26T13:38:19;6.50;;;4.73;;
9763;SDS011;4921;43.214;27.936;2022-10-26T13:40:48;5.70;;;5.20;;
9763;SDS011;4921;43.214;27.936;2022-10-26T13:43:18;5.10;;;4.20;;
9763;SDS011;4921;43.214;27.936;2022-10-26T13:45:52;5.93;;;4.50;;
9763;SDS011;4921;43.214;27.936;2022-10-26T13:48:29;5.07;;;4.57;;
9763;SDS011;4921;43.214;27.936;2022-10-26T13:51:01;6.53;;;4.90;;
9763;SDS011;4921;43.214;27.936;2022-10-26T13:53:37;7.00;;;6.30;;
9763;SDS011;4921;43.214;27.936;2022-10-26T13:56:12;5.93;;;5.43;;
9763;SDS011;4921;43.214;27.936;2022-10-26T13:58:48;8.40;;;5.40;;
9763;SDS011;4921;43.214;27.936;2022-10-26T14:01:18;5.60;;;4.80;;
9763;SDS011;4921;43.214;27.936;2022-10-26T14:03:47;8.27;;;5.00;;
9763;SDS011;4921;43.214;27.936;2022-10-26T14:06:18;7.90;;;5.13;;
9763;SDS011;4921;43.214;27.936;2022-10-26T14:08:50;7.33;;;5.63;;
9763;SDS011;4921;43.214;27.936;2022-10-26T14:11:19;6.27;;;5.40;;
9763;SDS011;4921;43.214;27.936;2022-10-26T14:13:50;9.27;;;5.17;;
9763;SDS011;4921;43.214;27.936;2022-10-26T14:16:18;6.50;;;4.90;;
9763;SDS011;4921;43.214;27.936;2022-10-26T14:18:46;6.07;;;5.17;;
9763;SDS011;4921;43.214;27.936;2022-10-26T14:21:15;8.43;;;5.00;;
9763;SDS011;4921;43.214;27.936;2022-10-26T14:23:45;5.33;;;4.83;;
9763;SDS011;4921;43.214;27.936;2022-10-26T14:26:20;5.77;;;5.17;;
9763;SDS011;4921;43.214;27.936;2022-10-26T14:28:49;11.23;;;5.37;;
9763;SDS011;4921;43.214;27.936;2022-10-26T14:31:22;10.70;;;9.60;;
9763;SDS011;4921;43.214;27.936;2022-10-26T14:33:51;6.70;;;5.70;;
9763;SDS011;4921;43.214;27.936;2022-10-26T14:36:20;10.33;;;7.03;;
9763;SDS011;4921;43.214;27.936;2022-10-26T14:38:52;5.93;;;4.77;;
9763;SDS011;4921;43.214;27.936;2022-10-26T14:41:24;6.37;;;4.73;;
9763;SDS011;4921;43.214;27.936;2022-10-26T14:43:52;5.37;;;4.87;;
9763;SDS011;4921;43.214;27.936;2022-10-26T14:46:22;13.43;;;7.17;;
9763;SDS011;4921;43.214;27.936;2022-10-26T14:48:50;8.63;;;5.67;;
9763;SDS011;4921;43.214;27.936;2022-10-26T14:51:24;8.93;;;6.93;;
9763;SDS011;4921;43.214;27.936;2022-10-26T14:53:53;8.90;;;5.97;;
9763;SDS011;4921;43.214;27.936;2022-10-26T14:56:25;5.80;;;5.20;;
9763;SDS011;4921;43.214;27.936;2022-10-26T14:58:54;6.50;;;5.10;;
9763;SDS011;4921;43.214;27.936;2022-10-26T15:01:23;6.60;;;5.00;;
9763;SDS011;4921;43.214;27.936;2022-10-26T15:03:56;9.50;;;6.50;;
9763;SDS011;4921;43.214;27.936;2022-10-26T15:06:28;8.80;;;5.87;;
9763;SDS011;4921;43.214;27.936;2022-10-26T15:11:58;8.23;;;5.20;;
9763;SDS011;4921;43.214;27.936;2022-10-26T15:14:28;9.30;;;5.53;;
9763;SDS011;4921;43.214;27.936;2022-10-26T15:16:56;7.80;;;5.57;;
9763;SDS011;4921;43.214;27.936;2022-10-26T15:19:24;6.00;;;4.43;;
9763;SDS011;4921;43.214;27.936;2022-10-26T15:21:52;6.23;;;5.20;;
9763;SDS011;4921;43.214;27.936;2022-10-26T15:24:25;14.30;;;10.90;;
9763;SDS011;4921;43.214;27.936;2022-10-26T15:26:58;6.93;;;5.30;;
9763;SDS011;4921;43.214;27.936;2022-10-26T15:29:33;5.70;;;5.17;;
9763;SDS011;4921;43.214;27.936;2022-10-26T15:32:01;6.67;;;5.53;;
9763;SDS011;4921;43.214;27.936;2022-10-26T15:34:29;5.80;;;4.93;;
9763;SDS011;4921;43.214;27.936;2022-10-26T15:36:56;5.43;;;4.93;;